Time;durP1;ratioP1;P1;durP2;ratioP2;P2;SDS_P1;SDS_P2;PMS_P1;PMS_P2;Temp;Humidity;BMP_temperature;BMP_pressure;BME280_temperature;BME280_humidity;BME280_pressure;Samples;Min_cycle;Max_cycle;Signal;HPM_P1;HPM_P2
2022/03/04 00:00:35;;;;;;;88.10;42.10;;;;;;;0.21;70.95;100703.90;84795;1327;24159;-77
2022/03/04 00:02:50;;;;;;;69.10;34.40;;;;;;;0.20;71.02;100706.46;84748;1327;22609;-78
2022/03/04 00:05:05;;;;;;;61.10;32.30;;;;;;;0.19;71.15;100700.95;84695;1330;25374;-77
2022/03/04 00:07:15;;;;;;;50.90;26.80;;;;;;;0.19;70.94;100710.05;84820;1323;22637;-78
2022/03/04 00:09:25;;;;;;;54.90;28.80;;;;;;;0.20;71.21;100714.69;84705;1327;22592;-77
2022/03/04 00:11:34;;;;;;;46.30;26.40;;;;;;;0.19;71.10;100712.44;84713;1325;22594;-78
2022/03/04 00:13:45;;;;;;;48.00;27.50;;;;;;;0.21;71.41;100712.65;84775;1327;22576;-78
2022/03/04 00:15:58;;;;;;;51.50;26.30;;;;;;;0.21;71.50;100705.45;84804;1328;24381;-76
2022/03/04 00:18:07;;;;;;;46.00;26.20;;;;;;;0.22;71.26;100708.02;84795;1327;22878;-76
2022/03/04 00:20:19;;;;;;;47.60;27.40;;;;;;;0.27;71.64;100705.84;84714;1325;22725;-77
2022/03/04 00:22:29;;;;;;;51.40;27.50;;;;;;;0.30;71.68;100709.30;84791;1328;24224;-78
2022/03/04 00:24:39;;;;;;;45.20;27.90;;;;;;;0.30;71.23;100704.50;84798;1326;25312;-77
2022/03/04 00:26:47;;;;;;;;;;;;;;;0.32;71.46;100706.39;84746;1327;22604;-78
2022/03/04 00:29:00;;;;;;;50.10;26.80;;;;;;;0.31;71.45;100702.27;84795;1326;24230;-78
2022/03/04 00:31:09;;;;;;;59.00;27.60;;;;;;;0.31;71.40;100702.27;84722;1327;22870;-79
2022/03/04 00:33:19;;;;;;;50.10;27.00;;;;;;;0.29;71.38;100699.67;84790;1327;22577;-75
2022/03/04 00:35:33;;;;;;;47.40;27.70;;;;;;;0.29;71.25;100697.95;84019;1329;1003667;-77
2022/03/04 00:37:42;;;;;;;50.80;27.90;;;;;;;0.26;71.36;100698.61;84808;1323;22862;-78
2022/03/04 00:39:52;;;;;;;59.60;33.20;;;;;;;0.24;71.33;100700.48;84731;1325;22761;-75
2022/03/04 00:42:05;;;;;;;52.60;28.70;;;;;;;0.24;71.35;100700.48;84714;1331;22594;-76
2022/03/04 00:44:15;;;;;;;49.30;28.00;;;;;;;0.25;71.71;100696.72;84799;1324;26458;-76
2022/03/04 00:46:24;;;;;;;46.10;27.00;;;;;;;0.25;71.54;100696.21;84830;1326;26005;-75
2022/03/04 00:48:34;;;;;;;54.70;32.20;;;;;;;0.28;71.70;100698.63;84812;1326;22580;-75
2022/03/04 00:50:44;;;;;;;54.30;30.20;;;;;;;0.31;71.86;100701.23;84787;1326;25419;-79
2022/03/04 00:52:55;;;;;;;55.80;29.90;;;;;;;0.33;71.77;100699.36;84784;1327;22629;-79
2022/03/04 00:55:05;;;;;;;63.80;34.20;;;;;;;0.33;71.85;100696.78;84767;1329;22599;-78
2022/03/04 00:57:17;;;;;;;58.50;32.20;;;;;;;0.33;72.09;100695.59;84799;1329;22587;-78
2022/03/04 00:59:27;;;;;;;75.30;38.60;;;;;;;0.36;71.86;100698.72;84817;1327;22632;-77
2022/03/04 01:01:37;;;;;;;76.10;39.00;;;;;;;0.35;71.95;100696.63;84668;1329;22643;-78
2022/03/04 01:03:52;;;;;;;82.30;42.40;;;;;;;0.34;72.07;100695.25;84786;1320;22615;-79
2022/03/04 01:06:02;;;;;;;77.30;40.90;;;;;;;0.34;71.97;100693.19;84761;1326;22606;-75
2022/03/04 01:08:12;;;;;;;68.10;33.50;;;;;;;0.34;71.93;100689.93;84666;1329;22712;-75
2022/03/04 01:10:22;;;;;;;55.60;29.80;;;;;;;0.33;72.12;100690.27;84790;1327;25612;-76
2022/03/04 01:12:31;;;;;;;50.80;26.60;;;;;;;0.34;72.03;100687.53;84782;1326;22602;-77
2022/03/04 01:14:43;;;;;;;50.50;28.20;;;;;;;0.34;71.90;100690.45;84702;1327;22597;-76
2022/03/04 01:16:56;;;;;;;59.10;30.60;;;;;;;0.39;72.15;100694.27;84809;1319;22594;-76
2022/03/04 01:19:05;;;;;;;55.90;29.30;;;;;;;0.41;72.20;100695.67;84793;1326;25419;-76
2022/03/04 01:21:15;;;;;;;53.80;30.50;;;;;;;0.42;71.95;100690.35;84783;1327;22580;-76
2022/03/04 01:23:26;;;;;;;55.60;30.50;;;;;;;0.42;72.30;100694.81;84680;1330;22662;-76
2022/03/04 01:25:35;;;;;;;61.60;34.20;;;;;;;0.43;72.09;100691.21;84791;1325;22720;-79
2022/03/04 01:27:44;;;;;;;82.70;39.90;;;;;;;0.43;72.11;100688.46;84798;1326;22579;-79
2022/03/04 01:29:53;;;;;;;72.90;38.70;;;;;;;0.45;72.27;100690.39;84789;1322;22593;-79
2022/03/04 01:32:07;;;;;;;64.20;32.90;;;;;;;0.46;72.28;100690.05;84787;1327;22590;-79
2022/03/04 01:34:16;;;;;;;57.50;30.10;;;;;;;0.46;72.15;100687.30;84807;1325;22869;-78
2022/03/04 01:36:27;;;;;;;53.80;29.70;;;;;;;0.45;72.19;100685.91;84822;1328;25268;-78
2022/03/04 01:38:37;;;;;;;56.10;28.70;;;;;;;0.45;72.29;100689.52;84115;1323;1003982;-78
2022/03/04 01:40:47;;;;;;;56.50;27.00;;;;;;;0.45;72.39;100692.10;84783;1325;22714;-76
2022/03/04 01:42:56;;;;;;;53.90;27.10;;;;;;;0.45;72.35;100695.02;84826;1325;25346;-76
2022/03/04 01:45:08;;;;;;;55.90;29.20;;;;;;;0.45;72.43;100694.51;84804;1321;22711;-75
2022/03/04 01:47:18;;;;;;;58.90;30.20;;;;;;;0.49;72.48;100694.52;84822;1326;22603;-75
2022/03/04 01:49:27;;;;;;;61.00;32.60;;;;;;;0.53;72.66;100694.20;84819;1322;22603;-77
2022/03/04 01:51:37;;;;;;;61.50;32.00;;;;;;;0.56;72.59;100693.55;84798;1326;22597;-78
2022/03/04 01:53:49;;;;;;;56.50;32.20;;;;;;;0.58;72.79;100694.59;84804;1327;22562;-78
2022/03/04 01:55:58;;;;;;;57.80;31.00;;;;;;;0.59;72.82;100692.38;84819;1322;22752;-78
2022/03/04 01:58:07;;;;;;;53.50;30.90;;;;;;;0.60;72.61;100689.48;84092;1326;1003559;-79
2022/03/04 02:00:18;;;;;;;47.60;28.40;;;;;;;0.61;72.76;100691.70;84799;1323;22708;-78
2022/03/04 02:02:30;;;;;;;52.90;29.10;;;;;;;0.60;72.79;100691.69;84811;1327;24171;-79
2022/03/04 02:04:40;;;;;;;62.50;32.00;;;;;;;0.58;72.72;100695.96;84803;1325;23045;-77
2022/03/04 02:06:52;;;;;;;67.80;32.90;;;;;;;0.55;72.98;100691.48;84800;1327;22582;-75
2022/03/04 02:09:03;;;;;;;84.10;39.50;;;;;;;0.53;73.14;100694.73;84714;1327;22616;-76
2022/03/04 02:11:13;;;;;;;127.60;49.80;;;;;;;0.52;73.15;100691.63;84831;1325;22576;-78
2022/03/04 02:13:22;;;;;;;116.70;47.50;;;;;;;0.53;73.29;100691.28;83894;1329;1261351;-78
2022/03/04 02:15:31;;;;;;;91.30;41.60;;;;;;;0.57;73.34;100692.02;84839;1325;22612;-78
2022/03/04 02:17:41;;;;;;;85.80;39.00;;;;;;;0.61;73.23;100695.14;84795;1327;22629;-78
2022/03/04 02:19:55;;;;;;;73.80;35.30;;;;;;;0.62;73.37;100695.15;84108;1327;1002967;-76
2022/03/04 02:22:07;;;;;;;133.10;51.50;;;;;;;0.63;73.45;100696.69;84801;1327;25522;-76
2022/03/04 02:24:19;;;;;;;140.20;55.30;;;;;;;0.61;73.64;100696.52;84757;1329;22620;-76
2022/03/04 02:26:29;;;;;;;107.10;45.00;;;;;;;0.60;73.40;100693.77;84783;1327;22724;-76
2022/03/04 02:28:39;;;;;;;74.60;34.50;;;;;;;0.60;73.32;100695.48;84793;1327;22609;-75
2022/03/04 02:30:48;;;;;;;72.40;35.10;;;;;;;0.61;73.72;100697.02;84782;1326;22587;-77
2022/03/04 02:32:57;;;;;;;62.90;31.60;;;;;;;0.60;73.99;100696.52;84813;1326;22680;-77
2022/03/04 02:35:07;;;;;;;55.80;31.00;;;;;;;0.58;73.86;100693.56;84713;1326;22670;-77
2022/03/04 02:37:15;;;;;;;;;;;;;;;0.58;73.97;100693.89;84807;1327;22823;-75
2022/03/04 02:39:27;;;;;;;44.10;24.00;;;;;;;0.55;73.93;100699.72;84795;1321;22617;-76
2022/03/04 02:41:37;;;;;;;51.10;27.50;;;;;;;0.55;73.96;100698.36;84808;1326;22599;-78
2022/03/04 02:43:46;;;;;;;47.00;25.70;;;;;;;0.58;73.94;100698.88;84779;1321;22607;-79
2022/03/04 02:45:57;;;;;;;45.40;24.60;;;;;;;0.60;74.20;100700.46;84760;1326;22612;-78
2022/03/04 02:48:08;;;;;;;47.20;27.30;;;;;;;0.62;74.08;100702.70;84809;1321;22664;-78
2022/03/04 02:50:18;;;;;;;43.90;26.10;;;;;;;0.62;74.14;100702.35;84787;1325;25443;-78
2022/03/04 02:52:27;;;;;;;50.90;27.80;;;;;;;0.62;74.27;100704.24;84787;1328;22654;-79
2022/03/04 02:54:39;;;;;;;44.90;25.00;;;;;;;0.61;74.57;100704.06;84763;1323;22596;-76
2022/03/04 02:56:48;;;;;;;46.10;25.50;;;;;;;0.62;74.38;100702.35;84821;1326;22607;-76
2022/03/04 02:58:58;;;;;;;54.40;25.60;;;;;;;0.61;74.43;100704.75;84791;1327;22589;-76
2022/03/04 03:01:07;;;;;;;41.00;23.10;;;;;;;0.61;74.62;100703.55;84587;1330;22689;-78
2022/03/04 03:03:17;;;;;;;37.10;21.50;;;;;;;0.61;74.42;100703.04;84763;1325;22763;-78
2022/03/04 03:05:30;;;;;;;42.80;25.20;;;;;;;0.62;74.64;100703.38;84797;1329;23302;-77
2022/03/04 03:07:39;;;;;;;45.30;24.40;;;;;;;0.64;74.68;100701.86;84823;1326;25430;-78
2022/03/04 03:09:49;;;;;;;44.40;24.40;;;;;;;0.65;74.91;100701.36;84811;1318;22590;-76
2022/03/04 03:11:58;;;;;;;;;;;;;;;0.67;74.72;100699.46;84808;1327;22560;-76
2022/03/04 03:14:11;;;;;;;46.10;25.00;;;;;;;0.68;74.79;100698.27;84783;1327;22642;-76
2022/03/04 03:16:21;;;;;;;50.10;25.90;;;;;;;0.70;74.75;100696.08;84701;1328;22604;-76
2022/03/04 03:18:31;;;;;;;39.80;23.00;;;;;;;0.72;74.67;100694.19;84807;1318;22573;-77
2022/03/04 03:20:39;;;;;;;;;;;;;;;0.71;74.75;100697.96;84796;1326;22557;-76
2022/03/04 03:22:48;;;;;;;43.30;24.30;;;;;;;0.69;74.77;100700.69;84727;1327;22617;-76
2022/03/04 03:25:00;;;;;;;39.30;22.70;;;;;;;0.68;74.97;100701.02;84750;1327;22626;-77
2022/03/04 03:27:10;;;;;;;38.30;21.50;;;;;;;0.69;74.89;100705.67;84782;1328;22591;-78
2022/03/04 03:29:24;;;;;;;45.20;22.40;;;;;;;0.70;75.04;100707.23;83949;1330;1003743;-79
2022/03/04 03:31:33;;;;;;;37.80;20.60;;;;;;;0.71;75.22;100712.21;84052;1327;1003134;-76
2022/03/04 03:33:43;;;;;;;35.10;20.30;;;;;;;0.74;75.18;100710.52;84796;1327;22606;-75
2022/03/04 03:35:58;;;;;;;35.60;21.60;;;;;;;0.78;75.07;100710.02;84817;1328;22615;-78
2022/03/04 03:38:08;;;;;;;35.30;20.00;;;;;;;0.81;75.18;100709.71;84802;1327;22979;-78
2022/03/04 03:40:17;;;;;;;35.70;21.10;;;;;;;0.83;75.45;100714.35;84830;1327;25261;-78
2022/03/04 03:42:30;;;;;;;37.70;20.60;;;;;;;0.86;75.17;100712.32;84675;1328;23927;-80
2022/03/04 03:44:40;;;;;;;37.30;21.60;;;;;;;0.86;75.47;100716.27;84784;1318;22812;-77
2022/03/04 03:46:53;;;;;;;34.10;19.90;;;;;;;0.88;75.42;100717.48;84761;1328;22581;-75
2022/03/04 03:49:04;;;;;;;36.20;18.70;;;;;;;0.87;75.44;100719.02;84780;1327;24497;-75
2022/03/04 03:51:14;;;;;;;35.90;19.20;;;;;;;0.86;75.50;100720.57;84748;1327;23964;-78
2022/03/04 03:53:26;;;;;;;32.00;19.00;;;;;;;0.86;75.50;100718.33;84806;1327;22602;-77
2022/03/04 03:55:37;;;;;;;31.00;18.70;;;;;;;0.88;75.62;100717.81;84638;1329;25419;-78
2022/03/04 03:57:45;;;;;;;;;;;;;;;0.89;75.85;100720.77;84763;1324;22577;-77
2022/03/04 03:59:55;;;;;;;32.90;19.50;;;;;;;0.91;75.89;100716.64;84771;1326;25935;-75
2022/03/04 04:02:08;;;;;;;35.90;19.00;;;;;;;0.93;76.02;100716.66;84780;1326;24942;-75
2022/03/04 04:04:21;;;;;;;29.30;18.50;;;;;;;0.95;75.91;100718.92;84762;1327;22581;-74
2022/03/04 04:06:31;;;;;;;42.50;19.80;;;;;;;0.97;76.05;100721.66;84807;1327;25488;-76
2022/03/04 04:08:40;;;;;;;32.30;17.90;;;;;;;0.97;75.82;100723.21;84799;1326;22603;-77
2022/03/04 04:10:51;;;;;;;34.70;19.90;;;;;;;0.98;75.91;100723.04;84824;1325;22593;-77
2022/03/04 04:13:00;;;;;;;38.70;20.20;;;;;;;0.96;76.13;100722.70;84758;1325;22636;-79
2022/03/04 04:15:11;;;;;;;31.90;18.60;;;;;;;0.95;75.90;100724.76;84814;1326;22600;-75
2022/03/04 04:17:24;;;;;;;33.20;19.00;;;;;;;0.95;76.19;100720.63;84821;1325;22605;-76
2022/03/04 04:19:35;;;;;;;31.50;16.10;;;;;;;0.98;76.10;100721.67;84811;1328;22608;-76
2022/03/04 04:21:44;;;;;;;28.20;15.40;;;;;;;1.01;76.16;100726.16;84697;1330;22587;-78
2022/03/04 04:23:54;;;;;;;27.70;16.60;;;;;;;1.06;76.05;100726.02;84815;1326;24264;-78
2022/03/04 04:26:06;;;;;;;32.90;16.50;;;;;;;1.11;76.40;100729.14;84808;1326;22613;-76
2022/03/04 04:28:16;;;;;;;28.90;15.50;;;;;;;1.15;76.21;100732.10;84815;1327;24253;-76
2022/03/04 04:30:29;;;;;;;29.80;16.60;;;;;;;1.15;76.23;100735.36;84728;1324;22723;-76
2022/03/04 04:32:39;;;;;;;30.80;16.60;;;;;;;1.15;76.14;100734.67;84769;1328;22629;-75
2022/03/04 04:34:47;;;;;;;33.00;16.50;;;;;;;1.14;76.29;100739.83;84816;1322;22692;-76
2022/03/04 04:36:59;;;;;;;33.50;18.00;;;;;;;1.13;76.06;100742.55;84786;1327;24914;-75
2022/03/04 04:39:08;;;;;;;31.90;16.30;;;;;;;1.12;76.07;100744.61;84794;1326;22618;-76
2022/03/04 04:41:21;;;;;;;28.90;16.80;;;;;;;1.12;76.17;100743.75;84760;1327;22604;-79
2022/03/04 04:43:31;;;;;;;25.60;15.00;;;;;;;1.14;75.95;100741.88;84824;1329;22692;-78
2022/03/04 04:45:40;;;;;;;21.30;13.70;;;;;;;1.16;76.24;100742.23;84800;1328;22582;-77
2022/03/04 04:47:49;;;;;;;27.10;17.20;;;;;;;1.18;76.27;100741.90;84796;1327;26613;-77
2022/03/04 04:49:59;;;;;;;24.30;13.50;;;;;;;1.19;76.18;100740.90;84755;1327;22627;-77
2022/03/04 04:52:09;;;;;;;28.20;15.10;;;;;;;1.22;76.32;100743.30;84755;1327;25495;-77
2022/03/04 04:54:22;;;;;;;27.40;15.20;;;;;;;1.27;76.49;100746.41;84790;1326;22632;-78
2022/03/04 04:56:31;;;;;;;24.00;14.90;;;;;;;1.28;76.30;100748.33;84743;1327;22627;-79
2022/03/04 04:58:41;;;;;;;24.00;15.00;;;;;;;1.29;76.30;100747.81;84762;1326;24283;-78
2022/03/04 05:00:53;;;;;;;24.70;14.90;;;;;;;1.27;76.29;100750.73;84769;1320;25444;-75
2022/03/04 05:03:03;;;;;;;24.70;14.50;;;;;;;1.25;76.15;100752.09;84787;1327;22848;-75
2022/03/04 05:05:15;;;;;;;23.50;14.30;;;;;;;1.25;76.27;100749.86;84752;1327;25346;-74
2022/03/04 05:07:25;;;;;;;23.00;13.10;;;;;;;1.25;76.44;100747.28;84789;1327;22928;-76
2022/03/04 05:09:34;;;;;;;25.90;14.70;;;;;;;1.27;76.38;100746.95;84804;1326;24245;-77
2022/03/04 05:11:43;;;;;;;19.60;13.70;;;;;;;1.29;76.36;100746.10;84733;1327;22662;-78
2022/03/04 05:13:53;;;;;;;27.70;14.40;;;;;;;1.31;76.52;100747.48;84801;1327;25436;-78
2022/03/04 05:16:02;;;;;;;23.80;13.90;;;;;;;1.32;76.42;100751.27;84831;1322;22821;-75
2022/03/04 05:18:12;;;;;;;26.50;14.00;;;;;;;1.32;76.38;100752.81;84679;1327;25487;-76
2022/03/04 05:20:22;;;;;;;24.50;14.20;;;;;;;1.32;76.44;100755.05;84816;1326;22578;-78
2022/03/04 05:22:34;;;;;;;35.30;17.90;;;;;;;1.32;76.43;100755.90;84777;1327;22873;-78
2022/03/04 05:24:43;;;;;;;26.60;15.50;;;;;;;1.33;76.64;100756.79;84809;1327;22656;-76
2022/03/04 05:26:55;;;;;;;26.20;14.80;;;;;;;1.32;76.66;100757.29;84779;1323;22595;-76
2022/03/04 05:29:05;;;;;;;35.00;18.00;;;;;;;1.32;76.75;100760.55;84780;1326;22668;-75
2022/03/04 05:31:17;;;;;;;26.30;15.10;;;;;;;1.34;76.59;100759.38;84763;1328;22592;-78
2022/03/04 05:33:26;;;;;;;30.30;15.80;;;;;;;1.35;76.69;100763.66;84786;1318;23120;-80
2022/03/04 05:35:36;;;;;;;25.20;16.60;;;;;;;1.38;76.88;100765.04;84813;1326;24116;-76
2022/03/04 05:37:45;;;;;;;31.40;15.70;;;;;;;1.38;76.91;100765.76;84805;1328;24282;-77
2022/03/04 05:39:58;;;;;;;33.90;20.70;;;;;;;1.41;77.02;100769.19;84806;1325;22630;-77
2022/03/04 05:42:08;;;;;;;40.30;22.80;;;;;;;1.41;77.10;100771.94;84786;1326;22601;-76
2022/03/04 05:44:17;;;;;;;34.10;19.00;;;;;;;1.40;77.10;100773.84;84807;1327;25477;-78
2022/03/04 05:46:32;;;;;;;36.80;19.70;;;;;;;1.38;77.18;100775.89;84681;1330;22621;-77
2022/03/04 05:48:42;;;;;;;44.00;22.20;;;;;;;1.36;77.12;100777.76;84818;1327;22651;-75
2022/03/04 05:50:55;;;;;;;40.20;21.90;;;;;;;1.35;77.42;100784.80;84832;1327;22595;-77
2022/03/04 05:53:04;;;;;;;40.10;21.60;;;;;;;1.34;77.23;100786.18;84817;1326;22599;-77
2022/03/04 05:55:16;;;;;;;31.70;17.80;;;;;;;1.35;77.43;100787.22;84771;1326;23914;-78
2022/03/04 05:57:25;;;;;;;37.60;19.30;;;;;;;1.39;77.60;100792.23;84827;1323;22707;-78
2022/03/04 05:59:47;;;;;;;48.20;26.50;;;;;;;1.42;77.88;100794.29;84849;1323;22662;-79
2022/03/04 06:01:57;;;;;;;45.30;23.50;;;;;;;1.42;77.78;100795.52;84832;1327;22868;-78
2022/03/04 06:04:07;;;;;;;41.60;21.30;;;;;;;1.42;77.67;100792.92;84805;1326;22583;-79
2022/03/04 06:06:20;;;;;;;35.90;20.10;;;;;;;1.42;77.72;100791.72;84828;1327;22694;-78
2022/03/04 06:08:29;;;;;;;32.80;17.50;;;;;;;1.41;77.69;100797.22;84787;1326;22664;-76
2022/03/04 06:10:42;;;;;;;35.90;18.40;;;;;;;1.37;77.66;100799.77;84806;1329;22593;-76
2022/03/04 06:12:52;;;;;;;40.10;19.50;;;;;;;1.35;77.56;100801.31;84812;1323;22607;-74
2022/03/04 06:15:01;;;;;;;32.80;16.40;;;;;;;1.34;77.90;100804.40;84804;1326;22650;-76
2022/03/04 06:17:10;;;;;;;26.60;16.80;;;;;;;1.33;77.77;100806.45;84812;1322;22657;-79
2022/03/04 06:19:20;;;;;;;43.30;19.40;;;;;;;1.32;77.81;100809.36;84802;1323;22725;-79
2022/03/04 06:21:33;;;;;;;32.90;16.90;;;;;;;1.31;77.76;100809.36;84714;1328;23978;-75
2022/03/04 06:23:42;;;;;;;24.70;16.90;;;;;;;1.31;77.86;100812.11;84797;1327;22603;-75
2022/03/04 06:25:52;;;;;;;33.30;18.10;;;;;;;1.29;77.90;100818.62;84796;1326;25368;-75
2022/03/04 06:28:02;;;;;;;33.30;18.30;;;;;;;1.28;77.87;100820.86;84778;1328;22864;-75
2022/03/04 06:30:13;;;;;;;47.10;24.70;;;;;;;1.28;77.87;100822.39;84803;1323;22652;-79
2022/03/04 06:32:22;;;;;;;49.90;21.90;;;;;;;1.27;78.12;100824.45;84806;1329;25535;-79
2022/03/04 06:34:34;;;;;;;44.40;21.50;;;;;;;1.25;78.06;100823.92;84789;1327;22567;-75
2022/03/04 06:36:44;;;;;;;39.20;20.20;;;;;;;1.23;78.01;100829.40;84680;1329;23974;-76
2022/03/04 06:38:56;;;;;;;;;;;;;;;1.22;78.22;100831.63;84776;1327;22605;-76
2022/03/04 06:41:09;;;;;;;37.80;19.60;;;;;;;1.18;78.02;100834.02;84717;1327;22606;-75
2022/03/04 06:43:19;;;;;;;36.60;20.00;;;;;;;1.21;78.31;100831.96;84790;1322;24366;-74
2022/03/04 06:45:31;;;;;;;35.90;18.80;;;;;;;1.20;78.32;100832.83;84834;1327;22673;-81
2022/03/04 06:47:41;;;;;;;32.60;19.60;;;;;;;1.20;78.44;100837.81;84792;1326;22575;-79
2022/03/04 06:49:53;;;;;;;24.90;15.60;;;;;;;1.21;78.51;100842.97;84819;1328;22638;-78
2022/03/04 06:52:03;;;;;;;27.10;16.70;;;;;;;1.22;78.61;100846.08;84792;1329;22586;-81
2022/03/04 06:54:12;;;;;;;21.30;14.50;;;;;;;1.23;78.42;100842.98;84737;1327;23478;-81
2022/03/04 06:56:22;;;;;;;25.80;16.10;;;;;;;1.23;78.51;100843.15;84793;1327;22689;-79
2022/03/04 06:58:34;;;;;;;22.50;15.40;;;;;;;1.22;78.69;100843.15;84847;1327;22580;-79
2022/03/04 07:00:45;;;;;;;30.10;15.90;;;;;;;1.21;78.49;100841.59;84749;1327;25441;-73
2022/03/04 07:02:55;;;;;;;20.60;12.80;;;;;;;1.19;78.50;100841.77;84770;1327;23936;-75
2022/03/04 07:05:09;;;;;;;21.70;13.20;;;;;;;1.21;78.85;100846.06;84802;1327;25428;-74
2022/03/04 07:07:20;;;;;;;23.50;13.30;;;;;;;1.22;78.94;100845.72;84797;1327;22678;-77
2022/03/04 07:09:33;;;;;;;23.80;14.20;;;;;;;1.25;79.00;100847.98;84688;1330;22798;-77
2022/03/04 07:11:44;;;;;;;25.10;14.00;;;;;;;1.26;78.97;100845.76;84776;1327;22581;-76
2022/03/04 07:13:57;;;;;;;38.70;22.40;;;;;;;1.32;79.09;100846.15;84749;1329;25293;-76
2022/03/04 07:16:07;;;;;;;83.80;40.10;;;;;;;1.40;79.30;100849.48;84703;1327;22725;-80
2022/03/04 07:18:17;;;;;;;220.50;103.80;;;;;;;1.43;79.26;100850.86;84762;1330;22584;-79
2022/03/04 07:20:27;;;;;;;109.60;59.10;;;;;;;1.46;79.25;100850.71;84760;1325;25614;-79
2022/03/04 07:22:39;;;;;;;66.00;39.50;;;;;;;1.46;79.34;100855.35;84662;1330;24252;-79
2022/03/04 07:24:50;;;;;;;58.60;34.20;;;;;;;1.47;79.38;100858.46;84760;1327;22595;-75
2022/03/04 07:26:59;;;;;;;39.40;21.20;;;;;;;1.51;79.30;100862.61;84777;1328;22579;-76
2022/03/04 07:29:08;;;;;;;93.40;46.20;;;;;;;1.55;79.41;100864.54;84750;1327;24406;-77
2022/03/04 07:31:17;;;;;;;44.80;23.20;;;;;;;1.60;79.54;100865.94;84791;1328;22792;-78
2022/03/04 07:33:27;;;;;;;102.50;40.70;;;;;;;1.65;79.55;100865.29;84775;1330;23850;-78
2022/03/04 07:35:39;;;;;;;75.90;33.10;;;;;;;1.70;79.62;100863.94;84771;1327;22653;-77
2022/03/04 07:37:51;;;;;;;148.50;60.30;;;;;;;1.76;79.64;100864.83;84772;1330;22581;-79
2022/03/04 07:40:00;;;;;;;147.50;58.30;;;;;;;1.81;79.41;100865.71;84778;1328;25488;-76
2022/03/04 07:42:14;;;;;;;82.30;38.20;;;;;;;1.86;79.61;100869.70;84782;1325;22611;-76
2022/03/04 07:44:23;;;;;;;50.10;25.30;;;;;;;1.89;79.62;100865.59;84746;1330;22619;-76
2022/03/04 07:46:36;;;;;;;64.30;32.10;;;;;;;1.94;79.54;100869.75;84789;1323;22578;-76
2022/03/04 07:48:47;;;;;;;79.90;37.60;;;;;;;1.96;79.59;100873.71;84702;1330;22772;-78
2022/03/04 07:50:54;;;;;;;;;;;;;;;1.98;79.61;100874.08;84796;1327;22570;-78
2022/03/04 07:53:07;;;;;;;34.50;19.20;;;;;;;2.00;79.66;100873.73;84751;1327;22577;-78
2022/03/04 07:55:17;;;;;;;69.70;34.60;;;;;;;2.05;79.55;100869.98;84801;1326;22592;-76
2022/03/04 07:57:27;;;;;;;36.30;21.20;;;;;;;2.07;79.51;100875.48;84769;1330;22722;-76
2022/03/04 07:59:36;;;;;;;66.30;33.90;;;;;;;2.10;79.62;100878.95;84773;1327;22770;-76
2022/03/04 08:01:45;;;;;;;76.10;37.50;;;;;;;2.15;79.68;100882.23;84742;1329;24278;-76
2022/03/04 08:03:58;;;;;;;98.30;49.30;;;;;;;2.17;79.72;100883.80;84762;1327;24285;-77
2022/03/04 08:06:10;;;;;;;37.30;19.80;;;;;;;2.21;79.56;100882.61;84785;1327;22604;-77
2022/03/04 08:08:22;;;;;;;73.80;38.60;;;;;;;2.23;79.64;100882.80;84741;1330;22591;-77
2022/03/04 08:10:31;;;;;;;45.90;26.70;;;;;;;2.25;79.39;100886.76;84679;1328;24062;-77
2022/03/04 08:12:40;;;;;;;72.70;36.80;;;;;;;2.28;79.29;100883.52;84756;1322;24240;-77
2022/03/04 08:14:50;;;;;;;65.80;33.70;;;;;;;2.31;79.46;100885.75;84780;1323;22599;-79
2022/03/04 08:17:00;;;;;;;17.20;11.90;;;;;;;2.34;79.46;100885.77;84755;1327;22610;-79
2022/03/04 08:19:09;;;;;;;32.60;18.50;;;;;;;2.41;79.53;100890.61;84767;1327;22590;-78
2022/03/04 08:21:19;;;;;;;31.50;17.90;;;;;;;2.46;79.35;100892.02;84717;1330;22593;-77
2022/03/04 08:23:28;;;;;;;;;;;;;;;2.49;79.37;100893.05;84776;1330;22979;-77
2022/03/04 08:25:38;;;;;;;41.10;21.80;;;;;;;2.55;79.18;100893.08;84765;1328;25476;-76
2022/03/04 08:27:47;;;;;;;31.40;18.60;;;;;;;2.63;79.23;100893.61;84756;1323;22615;-75
2022/03/04 08:30:00;;;;;;;35.10;19.00;;;;;;;2.66;79.11;100897.56;84787;1328;22754;-79
2022/03/04 08:32:11;;;;;;;45.60;24.10;;;;;;;2.67;79.02;100897.59;84772;1327;22626;-78
2022/03/04 08:34:23;;;;;;;21.70;12.90;;;;;;;2.67;78.95;100897.08;84753;1327;22982;-75
2022/03/04 08:36:35;;;;;;;33.80;19.40;;;;;;;2.67;78.85;100901.55;84735;1330;24112;-79
2022/03/04 08:38:54;;;;;;;17.60;11.50;;;;;;;2.69;78.76;100906.38;84782;1327;22613;-77
2022/03/04 08:41:07;;;;;;;19.40;11.90;;;;;;;2.68;78.52;100910.85;84686;1332;25649;-79
2022/03/04 08:43:18;;;;;;;19.20;12.50;;;;;;;2.71;78.51;100912.58;84700;1332;22723;-79
2022/03/04 08:45:27;;;;;;;22.20;13.00;;;;;;;2.73;78.37;100913.27;84780;1327;24241;-76
2022/03/04 08:47:38;;;;;;;76.50;36.50;;;;;;;2.72;78.22;100916.38;84750;1330;25301;-76
2022/03/04 08:49:49;;;;;;;20.20;13.20;;;;;;;2.71;78.34;100914.98;84724;1329;24131;-76
2022/03/04 08:51:59;;;;;;;16.30;11.60;;;;;;;2.73;78.44;100918.10;84753;1329;22629;-76
2022/03/04 08:54:08;;;;;;;17.40;12.00;;;;;;;2.75;78.47;100916.02;84770;1327;25473;-76
2022/03/04 08:56:18;;;;;;;18.40;11.40;;;;;;;2.77;78.43;100915.19;84760;1327;22933;-76
2022/03/04 08:58:27;;;;;;;37.00;19.10;;;;;;;2.79;78.56;100917.94;84764;1327;22589;-76
2022/03/04 09:00:37;;;;;;;33.60;21.70;;;;;;;2.78;78.39;100915.02;84798;1326;26526;-78
2022/03/04 09:02:45;;;;;;;;;;;;;;;2.81;78.27;100920.89;84811;1328;22636;-77
2022/03/04 09:04:58;;;;;;;14.10;10.70;;;;;;;2.84;78.46;100923.30;84834;1328;22632;-76
2022/03/04 09:07:08;;;;;;;14.20;8.90;;;;;;;2.90;78.22;100924.00;84794;1325;22596;-77
2022/03/04 09:09:18;;;;;;;14.50;9.50;;;;;;;2.93;78.23;100924.86;84822;1329;22567;-79
2022/03/04 09:11:30;;;;;;;16.80;10.70;;;;;;;2.97;78.01;100920.05;84791;1327;22546;-79
2022/03/04 09:13:39;;;;;;;18.30;13.40;;;;;;;2.98;78.00;100920.73;84806;1327;25411;-79
2022/03/04 09:15:49;;;;;;;14.30;10.80;;;;;;;2.99;77.81;100921.08;84763;1324;22761;-76
2022/03/04 09:18:01;;;;;;;63.80;27.20;;;;;;;3.00;77.86;100922.29;84075;1329;1003227;-76
2022/03/04 09:20:11;;;;;;;;;;;;;;;2.98;77.71;100921.60;84736;1327;24353;-80
2022/03/04 09:22:21;;;;;;;12.30;9.90;;;;;;;2.93;77.68;100928.83;84821;1327;22635;-80
2022/03/04 09:24:34;;;;;;;14.50;9.10;;;;;;;2.92;77.78;100931.25;84821;1326;24334;-78
2022/03/04 09:26:44;;;;;;;13.90;9.60;;;;;;;2.92;77.75;100931.77;84692;1330;22584;-79
2022/03/04 09:28:54;;;;;;;31.50;16.90;;;;;;;2.89;77.64;100932.09;84746;1327;22583;-80
2022/03/04 09:31:06;;;;;;;16.30;11.20;;;;;;;2.89;77.71;100935.89;84778;1328;22719;-78
2022/03/04 09:33:15;;;;;;;22.70;14.00;;;;;;;2.91;77.87;100933.82;84795;1319;24256;-75
2022/03/04 09:35:25;;;;;;;9.10;7.70;;;;;;;2.94;77.84;100934.35;84058;1324;1003031;-76
2022/03/04 09:37:34;;;;;;;11.80;7.90;;;;;;;2.99;77.80;100931.08;84793;1326;23959;-76
2022/03/04 09:39:48;;;;;;;40.70;22.70;;;;;;;3.04;77.94;100933.33;84795;1327;22618;-78
2022/03/04 09:42:02;;;;;;;15.60;10.20;;;;;;;3.07;77.72;100935.75;84776;1325;22594;-79
2022/03/04 09:44:11;;;;;;;31.40;18.40;;;;;;;3.06;77.68;100935.59;84801;1329;22869;-81
2022/03/04 09:46:23;;;;;;;17.70;11.30;;;;;;;3.07;77.88;100937.65;84692;1330;23969;-80
2022/03/04 09:48:40;;;;;;;21.30;14.40;;;;;;;3.08;77.75;100941.95;84752;1328;22946;-79
2022/03/04 09:50:50;;;;;;;27.10;19.70;;;;;;;3.10;77.75;100943.18;84764;1327;23962;-77
2022/03/04 09:53:02;;;;;;;23.40;19.30;;;;;;;3.13;77.57;100942.14;84786;1329;22581;-76
2022/03/04 09:55:13;;;;;;;11.10;9.10;;;;;;;3.15;77.51;100936.61;84775;1327;25434;-79
2022/03/04 09:57:25;;;;;;;17.80;15.10;;;;;;;3.18;77.37;100937.66;84787;1329;22608;-80
2022/03/04 09:59:35;;;;;;;21.70;16.90;;;;;;;3.18;77.30;100938.17;84836;1329;24280;-74
2022/03/04 10:01:44;;;;;;;27.50;18.50;;;;;;;3.16;77.36;100938.35;84783;1329;22599;-74